Time;durP1;ratioP1;P1;durP2;ratioP2;P2;SDS_P1;SDS_P2;PMS_P1;PMS_P2;Temp;Humidity;BMP_temperature;BMP_pressure;BME280_temperature;BME280_humidity;BME280_pressure;Samples;Min_cycle;Max_cycle;Signal;HPM_P1;HPM_P2
2021/01/05 00:04:09;;;;;;;5.93;2.05;;;;;;;3.70;89.29;101857.13;10149236;28;20552;-67
2021/01/05 00:09:05;;;;;;;4.22;1.92;;;;;;;3.71;88.42;101853.34;10139642;28;20050;-67
2021/01/05 00:14:01;;;;;;;4.97;1.88;;;;;;;3.68;87.87;101860.06;10134034;28;20539;-68
2021/01/05 00:18:57;;;;;;;4.10;1.75;;;;;;;3.79;88.21;101855.66;10137340;28;20054;-66
2021/01/05 00:23:54;;;;;;;9.82;2.10;;;;;;;3.82;88.51;101855.16;10141673;28;20570;-68
2021/01/05 00:28:50;;;;;;;5.60;2.38;;;;;;;3.77;88.18;101853.19;10144572;28;20058;-68
2021/01/05 00:33:46;;;;;;;6.78;2.22;;;;;;;3.72;87.86;101860.41;10146626;28;20053;-67
2021/01/05 00:38:42;;;;;;;6.30;2.15;;;;;;;3.75;87.47;101849.91;10148665;28;20050;-68
2021/01/05 00:43:39;;;;;;;5.25;2.10;;;;;;;3.87;88.61;101852.56;10148505;28;20054;-67
2021/01/05 00:48:36;;;;;;;3.08;1.13;;;;;;;3.79;88.04;101856.50;10134740;28;20051;-67
2021/01/05 00:53:32;;;;;;;3.53;1.65;;;;;;;3.65;87.34;101859.75;10145294;28;20054;-67
2021/01/05 00:58:28;;;;;;;5.97;2.15;;;;;;;3.77;89.10;101852.38;10153768;28;20050;-68
2021/01/05 01:03:24;;;;;;;4.95;1.95;;;;;;;3.82;89.17;101852.47;10146481;28;20109;-67
2021/01/05 01:08:23;;;;;;;6.07;2.20;;;;;;;3.72;87.63;101849.59;10143541;28;20050;-68
2021/01/05 01:13:21;;;;;;;3.85;1.75;;;;;;;3.80;88.89;101852.69;10152635;28;20045;-68
2021/01/05 01:18:17;;;;;;;4.20;1.90;;;;;;;3.78;89.14;101854.00;10145154;28;20059;-67
2021/01/05 01:23:13;;;;;;;4.30;1.95;;;;;;;3.82;87.92;101852.47;10139479;28;20698;-69
2021/01/05 01:28:09;;;;;;;3.90;1.65;;;;;;;3.86;89.04;101853.63;10158420;28;20058;-68
2021/01/05 01:33:06;;;;;;;4.63;1.88;;;;;;;3.78;88.73;101851.31;10138425;28;20085;-67
2021/01/05 01:38:02;;;;;;;4.05;1.80;;;;;;;3.88;89.67;101853.38;10132710;28;20054;-66
2021/01/05 01:42:59;;;;;;;3.83;1.95;;;;;;;3.56;88.03;101854.72;10135608;28;20039;-67
2021/01/05 01:47:57;;;;;;;3.50;1.67;;;;;;;3.70;89.68;101852.53;10148195;28;20120;-66
2021/01/05 01:53:02;;;;;;;4.13;1.90;;;;;;;3.71;89.04;101858.75;10146134;28;20050;-66
2021/01/05 01:58:04;;;;;;;4.60;1.80;;;;;;;3.59;87.05;101865.06;10140218;28;20510;-69
2021/01/05 02:03:35;;;;;;;4.68;1.70;;;;;;;3.59;87.27;101862.34;10130085;28;20468;-66
2021/01/05 02:08:47;;;;;;;4.32;2.15;;;;;;;3.49;86.40;101867.56;10128687;28;20046;-68
2021/01/05 02:14:13;;;;;;;5.13;2.20;;;;;;;3.54;87.42;101862.25;10146759;28;20081;-68
2021/01/05 02:19:17;;;;;;;5.15;2.47;;;;;;;3.41;86.48;101865.25;10150853;28;20042;-69
2021/01/05 02:24:16;;;;;;;;;;;;;;;3.28;88.48;101854.75;10154356;28;20046;-67
2021/01/05 02:29:19;;;;;;;5.35;2.53;;;;;;;3.34;88.77;101859.16;10152069;28;19958;-69
2021/01/05 02:35:10;;;;;;;4.77;2.00;;;;;;;3.64;89.97;101850.81;10153711;28;20119;-66
2021/01/05 02:40:47;;;;;;;5.32;2.10;;;;;;;3.61;89.58;101848.59;10151869;28;20100;-67
2021/01/05 02:46:05;;;;;;;5.63;2.50;;;;;;;3.13;87.58;101850.69;10151478;28;20058;-67
2021/01/05 02:51:26;;;;;;;4.45;2.20;;;;;;;3.46;89.76;101846.44;10152957;28;20057;-67
2021/01/05 02:56:37;;;;;;;4.45;2.10;;;;;;;3.40;87.85;101842.00;10152682;28;20049;-67
2021/01/05 03:01:48;;;;;;;6.80;2.38;;;;;;;3.49;90.21;101845.94;10142305;28;20082;-67
2021/01/05 03:06:48;;;;;;;5.13;2.75;;;;;;;3.47;89.54;101845.38;10152470;28;20568;-67
2021/01/05 03:12:02;;;;;;;7.68;2.92;;;;;;;3.41;88.69;101840.91;10127967;28;20054;-67
2021/01/05 03:17:13;;;;;;;4.93;2.20;;;;;;;3.53;89.54;101836.28;10143932;28;20049;-69
2021/01/05 03:22:12;;;;;;;5.50;2.88;;;;;;;3.38;87.98;101833.28;10165008;28;20042;-69
2021/01/05 03:27:11;;;;;;;5.90;2.65;;;;;;;3.44;88.38;101840.44;10148138;28;20053;-68
2021/01/05 03:32:10;;;;;;;6.22;2.90;;;;;;;3.34;86.63;101843.78;10146829;28;20045;-69
2021/01/05 03:37:07;;;;;;;5.28;3.10;;;;;;;3.39;87.63;101840.38;10145378;28;20502;-68
2021/01/05 03:42:03;;;;;;;4.78;2.53;;;;;;;3.42;88.79;101841.75;10152130;28;20100;-69
2021/01/05 03:46:59;;;;;;;6.35;3.20;;;;;;;3.28;88.27;101850.16;10139041;28;20065;-69
2021/01/05 03:51:55;;;;;;;6.13;3.80;;;;;;;3.13;87.87;101839.88;10150617;28;20058;-69
2021/01/05 03:56:54;;;;;;;8.23;3.97;;;;;;;3.27;88.35;101836.88;10140904;28;20069;-68
2021/01/05 04:01:54;;;;;;;7.97;3.42;;;;;;;3.39;88.26;101840.38;10143138;28;20056;-66
2021/01/05 04:06:50;;;;;;;7.68;4.50;;;;;;;3.30;86.89;101844.53;10136764;28;20058;-69
2021/01/05 04:11:46;;;;;;;8.50;4.05;;;;;;;3.44;88.34;101843.16;10142839;28;20058;-69
2021/01/05 04:16:46;;;;;;;6.28;3.50;;;;;;;3.51;88.40;101841.13;10157591;28;20050;-68
2021/01/05 04:21:42;;;;;;;5.40;3.20;;;;;;;3.51;88.43;101838.41;10150956;28;20070;-67
2021/01/05 04:26:38;;;;;;;6.78;3.25;;;;;;;3.52;87.05;101842.75;10146569;28;20058;-68
2021/01/05 04:31:39;;;;;;;6.38;3.20;;;;;;;3.47;87.51;101842.66;10136689;28;20050;-69
2021/01/05 04:36:35;;;;;;;6.85;3.20;;;;;;;3.46;86.30;101846.44;10147588;28;20058;-70
2021/01/05 04:41:50;;;;;;;4.47;1.70;;;;;;;3.63;87.95;101851.06;10143126;28;20073;-67
2021/01/05 04:47:12;;;;;;;6.40;2.80;;;;;;;3.60;88.02;101849.66;10138315;28;20050;-66
2021/01/05 04:52:13;;;;;;;5.68;3.35;;;;;;;3.62;88.26;101854.81;10150066;28;20577;-67
2021/01/05 04:57:18;;;;;;;5.85;3.58;;;;;;;3.62;87.56;101849.41;10141518;28;20400;-68
2021/01/05 05:02:24;;;;;;;5.28;2.53;;;;;;;3.62;88.31;101847.53;10147482;28;20414;-69
2021/01/05 05:07:31;;;;;;;8.43;4.30;;;;;;;3.62;87.56;101854.81;10152884;28;20054;-69
2021/01/05 05:12:56;;;;;;;8.52;4.18;;;;;;;3.59;88.40;101859.63;10154254;28;20056;-68
2021/01/05 05:18:26;;;;;;;8.35;3.95;;;;;;;3.75;89.07;101849.09;10137027;28;20046;-67
2021/01/05 05:23:32;;;;;;;6.72;3.97;;;;;;;3.72;89.17;101855.81;10143895;28;20051;-68
2021/01/05 05:28:36;;;;;;;7.60;4.30;;;;;;;3.81;89.26;101853.53;10135625;28;20051;-68
2021/01/05 05:33:38;;;;;;;8.02;4.40;;;;;;;3.78;89.32;101854.00;10137158;28;20486;-66
2021/01/05 05:38:57;;;;;;;9.18;4.90;;;;;;;3.50;87.51;101869.22;10134477;28;20050;-67
2021/01/05 05:44:15;;;;;;;7.45;4.80;;;;;;;3.75;89.56;101858.03;10136385;28;20049;-67
2021/01/05 05:49:26;;;;;;;7.68;2.65;;;;;;;4.08;90.40;101852.88;10133535;28;20060;-67
2021/01/05 05:54:24;;;;;;;8.95;4.55;;;;;;;3.90;90.29;101856.66;10130284;28;20043;-66
2021/01/05 05:59:31;;;;;;;8.73;4.85;;;;;;;3.77;88.72;101865.91;10131340;28;20058;-66
2021/01/05 06:04:31;;;;;;;8.73;5.55;;;;;;;3.76;87.97;101850.72;10134368;28;20482;-66
2021/01/05 06:09:27;;;;;;;9.52;5.55;;;;;;;3.73;88.08;101862.88;10132511;28;20065;-66
2021/01/05 06:14:24;;;;;;;9.93;5.78;;;;;;;3.66;88.11;101861.38;10128093;28;20061;-66
2021/01/05 06:19:20;;;;;;;9.02;5.28;;;;;;;3.64;87.26;101874.31;10136066;28;20078;-66
2021/01/05 06:24:16;;;;;;;9.60;4.70;;;;;;;3.72;88.55;101882.06;10128378;28;20038;-65
2021/01/05 06:29:12;;;;;;;6.35;2.72;;;;;;;3.87;90.32;101893.13;10137640;28;20078;-66
2021/01/05 06:34:08;;;;;;;7.00;3.80;;;;;;;3.88;89.58;101885.84;10129245;28;20061;-67
2021/01/05 06:39:04;;;;;;;8.77;4.88;;;;;;;3.82;88.06;101876.81;10146799;28;20042;-67
2021/01/05 06:44:01;;;;;;;9.60;5.15;;;;;;;3.84;87.92;101885.50;10139172;28;20049;-66
2021/01/05 06:49:00;;;;;;;8.00;5.15;;;;;;;3.88;88.13;101892.09;10137806;28;20056;-67
2021/01/05 06:53:56;;;;;;;10.13;5.40;;;;;;;3.75;87.88;101892.38;10147720;28;20038;-66
2021/01/05 06:58:53;;;;;;;10.90;6.32;;;;;;;3.66;87.33;101900.06;10142509;28;20078;-67
2021/01/05 07:03:50;;;;;;;9.02;5.68;;;;;;;3.70;87.39;101895.00;10135556;28;20045;-68
2021/01/05 07:08:47;;;;;;;8.73;4.82;;;;;;;3.85;88.15;101895.25;10143370;28;20145;-67
2021/01/05 07:13:43;;;;;;;7.43;4.57;;;;;;;3.93;87.95;101900.28;10139637;28;20052;-68
2021/01/05 07:18:39;;;;;;;10.52;5.43;;;;;;;3.91;87.24;101902.41;10116974;28;20054;-67
2021/01/05 07:23:36;;;;;;;9.73;5.18;;;;;;;3.76;86.17;101910.25;10123068;28;20854;-67
2021/01/05 07:28:33;;;;;;;10.35;5.88;;;;;;;3.90;87.33;101911.59;10121246;28;20177;-68
2021/01/05 07:33:29;;;;;;;11.40;6.80;;;;;;;3.58;85.41;101914.81;10116522;28;20046;-68
2021/01/05 07:38:26;;;;;;;10.13;5.03;;;;;;;4.02;88.50;101918.84;10133820;28;20054;-70
2021/01/05 07:43:22;;;;;;;9.52;5.53;;;;;;;3.81;87.39;101921.19;10158993;28;20038;-67
2021/01/05 07:48:19;;;;;;;8.43;5.05;;;;;;;3.81;87.88;101921.19;10144194;28;20500;-67
2021/01/05 07:53:15;;;;;;;8.55;4.97;;;;;;;3.89;87.48;101920.78;10131011;28;20047;-67
2021/01/05 07:58:20;;;;;;;12.52;6.40;;;;;;;3.68;86.22;101924.19;10134247;28;20108;-68
2021/01/05 08:03:18;;;;;;;12.05;6.00;;;;;;;3.90;87.50;101927.84;10126470;28;20125;-67
2021/01/05 08:08:15;;;;;;;9.00;6.05;;;;;;;3.81;87.19;101918.47;10137216;28;20465;-67
2021/01/05 08:13:12;;;;;;;4.95;3.03;;;;;;;4.10;87.38;101921.13;10132916;28;20089;-67
2021/01/05 08:18:10;;;;;;;9.45;5.10;;;;;;;4.04;87.35;101927.50;10119736;28;20065;-67
2021/01/05 08:23:07;;;;;;;10.57;6.13;;;;;;;3.96;86.60;101932.25;10133564;28;20074;-67
2021/01/05 08:28:04;;;;;;;9.57;4.43;;;;;;;4.12;88.13;101927.13;10122176;28;20046;-64
2021/01/05 08:33:06;;;;;;;8.07;5.32;;;;;;;3.93;84.39;101927.34;10122631;28;20163;-68
2021/01/05 08:38:04;;;;;;;6.47;4.05;;;;;;;4.20;87.28;101932.13;10122862;28;20498;-65
2021/01/05 08:43:05;;;;;;;7.60;4.43;;;;;;;4.27;88.42;101943.63;10112485;28;20121;-67
2021/01/05 08:48:05;;;;;;;10.13;4.53;;;;;;;4.20;87.90;101942.94;10103939;28;20096;-68
2021/01/05 08:53:06;;;;;;;8.00;4.00;;;;;;;4.22;88.67;101940.81;10124805;28;20454;-68
2021/01/05 08:58:06;;;;;;;;;;;;;;;4.28;88.71;101945.25;10193219;23;20426;-68
2021/01/05 09:03:06;;;;;;;7.82;4.47;;;;;;;4.20;88.46;101942.94;10153192;28;19972;-68
2021/01/05 09:08:14;;;;;;;4.85;2.60;;;;;;;4.30;89.11;101935.00;10121520;28;20058;-67
2021/01/05 09:13:10;;;;;;;6.18;3.13;;;;;;;4.31;88.81;101933.94;10114904;28;20089;-67
2021/01/05 09:18:06;;;;;;;6.90;3.83;;;;;;;4.38;88.56;101933.78;10108321;28;20050;-67
2021/01/05 09:23:02;;;;;;;10.35;4.25;;;;;;;4.55;88.78;101933.75;10116197;28;20049;-68
2021/01/05 09:27:58;;;;;;;7.13;4.30;;;;;;;4.47;88.55;101934.19;10112838;28;20548;-67
2021/01/05 09:32:54;;;;;;;7.75;3.60;;;;;;;4.42;88.42;101935.75;10111916;28;20696;-67
2021/01/05 09:37:51;;;;;;;9.25;4.70;;;;;;;4.20;86.45;101942.94;10124259;28;20141;-68
2021/01/05 09:42:47;;;;;;;8.45;4.45;;;;;;;4.47;88.42;101942.31;10112679;28;20077;-68
2021/01/05 09:47:45;;;;;;;6.53;4.40;;;;;;;4.46;88.14;101944.22;10109488;28;20061;-67
2021/01/05 09:52:41;;;;;;;8.73;4.75;;;;;;;4.59;89.10;101941.13;10110034;28;20469;-67
2021/01/05 09:57:38;;;;;;;8.30;4.28;;;;;;;4.63;88.59;101952.31;10120755;28;20586;-68
2021/01/05 10:02:35;;;;;;;6.30;3.92;;;;;;;4.65;88.76;101947.47;10105950;28;20469;-67
2021/01/05 10:07:31;;;;;;;8.23;3.70;;;;;;;4.81;88.85;101943.91;10113301;28;20070;-68
2021/01/05 10:12:28;;;;;;;7.15;3.55;;;;;;;4.73;88.13;101941.63;10107967;28;20051;-67
2021/01/05 10:17:24;;;;;;;8.25;4.43;;;;;;;4.61;86.14;101944.44;10098608;28;20486;-67
2021/01/05 10:22:21;;;;;;;8.15;4.20;;;;;;;4.71;87.94;101940.22;10110273;28;20070;-67
2021/01/05 10:27:17;;;;;;;6.43;2.80;;;;;;;4.62;87.80;101940.66;10136483;28;20100;-65
2021/01/05 10:32:17;;;;;;;3.92;1.63;;;;;;;4.70;88.30;101936.72;10110644;28;20047;-66
2021/01/05 10:37:13;;;;;;;7.82;3.30;;;;;;;4.84;88.60;101943.41;10124828;28;20070;-67
2021/01/05 10:42:11;;;;;;;7.75;2.67;;;;;;;4.83;88.18;101941.78;10127002;28;20051;-66
2021/01/05 10:47:09;;;;;;;7.97;3.88;;;;;;;4.79;88.23;101929.81;10120533;28;20050;-66
2021/01/05 10:52:06;;;;;;;6.93;3.42;;;;;;;4.63;86.20;101936.06;10126488;28;20049;-66
2021/01/05 10:57:04;;;;;;;10.32;5.15;;;;;;;4.84;87.75;101935.28;10115062;28;20485;-67
2021/01/05 11:02:02;;;;;;;5.72;3.08;;;;;;;4.82;87.85;101937.41;10119757;28;20354;-66
2021/01/05 11:07:20;;;;;;;6.88;4.10;;;;;;;4.78;87.20;101928.16;10114423;28;20181;-67
2021/01/05 11:12:22;;;;;;;7.97;3.75;;;;;;;4.73;87.35;101925.38;10121639;28;20832;-68
2021/01/05 11:17:19;;;;;;;9.13;4.32;;;;;;;4.81;86.80;101922.25;10122090;28;20078;-67
2021/01/05 11:22:17;;;;;;;9.70;2.95;;;;;;;4.88;88.02;101915.84;10108228;28;20058;-68
2021/01/05 11:27:17;;;;;;;5.00;3.08;;;;;;;5.06;87.74;101913.63;10108773;28;20117;-67
2021/01/05 11:32:16;;;;;;;5.13;2.92;;;;;;;5.32;87.61;101910.44;10101331;28;20454;-67
2021/01/05 11:37:16;;;;;;;6.15;2.90;;;;;;;5.35;88.33;101899.06;10109281;28;20042;-65
2021/01/05 11:42:18;;;;;;;5.50;2.80;;;;;;;5.31;88.50;101892.50;10114552;28;20051;-66
2021/01/05 11:47:18;;;;;;;6.03;3.05;;;;;;;5.17;86.22;101898.31;10109273;28;20043;-67
2021/01/05 11:52:14;;;;;;;4.03;2.33;;;;;;;5.32;87.85;101899.59;10112291;28;20097;-66
2021/01/05 11:57:11;;;;;;;6.32;3.08;;;;;;;5.27;87.96;101895.72;10109871;28;20066;-68
2021/01/05 12:02:07;;;;;;;5.03;2.42;;;;;;;5.40;88.67;101890.97;10102916;28;20054;-66
2021/01/05 12:07:04;;;;;;;4.95;2.55;;;;;;;5.39;87.26;101889.34;10103882;28;20635;-65
2021/01/05 12:12:08;;;;;;;5.03;2.88;;;;;;;5.44;86.88;101870.41;10105216;28;20057;-67
2021/01/05 12:17:08;;;;;;;5.45;2.63;;;;;;;5.57;87.82;101874.59;10108732;28;20154;-67
2021/01/05 12:22:09;;;;;;;5.72;2.55;;;;;;;5.31;85.96;101865.38;10115882;28;20055;-68
2021/01/05 12:27:07;;;;;;;6.13;2.90;;;;;;;5.49;86.66;101865.03;10121834;28;20133;-66
2021/01/05 12:32:07;;;;;;;6.13;2.85;;;;;;;5.54;86.81;101870.50;10111982;28;20042;-65
2021/01/05 12:37:07;;;;;;;6.40;2.63;;;;;;;5.52;85.56;101872.66;10101797;28;20121;-66
2021/01/05 12:42:31;;;;;;;5.80;3.10;;;;;;;5.52;85.61;101861.81;10105206;28;20273;-63
2021/01/05 12:47:28;;;;;;;5.63;2.50;;;;;;;5.64;83.49;101865.22;10105677;28;20142;-65
2021/01/05 12:52:24;;;;;;;4.30;2.05;;;;;;;5.68;85.39;101866.31;10107726;28;20057;-65
2021/01/05 12:57:25;;;;;;;7.57;3.33;;;;;;;5.59;83.26;101862.44;10107590;28;20364;-68
2021/01/05 13:02:31;;;;;;;4.55;2.30;;;;;;;5.70;84.14;101868.78;10108102;28;20546;-63
2021/01/05 13:07:27;;;;;;;4.80;2.38;;;;;;;5.63;84.61;101868.97;10100636;28;20407;-66
2021/01/05 13:12:25;;;;;;;4.47;2.28;;;;;;;5.48;83.65;101871.56;10111609;28;20061;-66
2021/01/05 13:17:25;;;;;;;6.95;2.55;;;;;;;5.11;81.95;101871.41;10105578;28;20043;-66
2021/01/05 13:22:22;;;;;;;4.85;2.70;;;;;;;5.46;84.65;101871.00;10107916;28;20054;-66
2021/01/05 13:27:18;;;;;;;6.32;2.95;;;;;;;5.40;85.10;101863.88;10114097;28;20051;-66
2021/01/05 13:32:17;;;;;;;5.47;2.20;;;;;;;5.28;84.27;101866.72;10115765;28;20061;-65
2021/01/05 13:37:16;;;;;;;3.70;1.95;;;;;;;5.47;85.66;101859.06;10106154;28;20050;-65
2021/01/05 13:42:18;;;;;;;3.92;1.80;;;;;;;5.39;85.61;101863.03;10106039;28;20054;-65
2021/01/05 13:47:18;;;;;;;4.13;2.13;;;;;;;5.61;86.44;101871.13;10110874;28;20051;-66
2021/01/05 13:52:19;;;;;;;5.45;2.97;;;;;;;5.41;86.03;101865.50;10102304;28;20065;-66
2021/01/05 13:57:19;;;;;;;10.88;3.05;;;;;;;5.37;85.75;101869.81;10120563;28;20472;-65
2021/01/05 14:02:17;;;;;;;6.20;3.00;;;;;;;5.35;85.68;101867.34;10105721;28;20561;-66
2021/01/05 14:07:15;;;;;;;6.80;3.40;;;;;;;5.30;86.66;101874.59;10101552;28;20047;-65
2021/01/05 14:12:27;;;;;;;5.43;1.92;;;;;;;5.38;87.67;101876.84;10103565;28;20400;-66
2021/01/05 14:17:25;;;;;;;10.43;3.50;;;;;;;5.19;87.45;101874.47;10109364;28;20510;-65
2021/01/05 14:22:22;;;;;;;4.43;1.75;;;;;;;5.18;87.51;101872.84;10113137;28;20080;-64
2021/01/05 14:27:19;;;;;;;9.63;2.95;;;;;;;5.18;87.37;101878.28;10105236;28;20086;-64
2021/01/05 14:32:16;;;;;;;6.38;2.78;;;;;;;5.04;86.85;101877.00;10104067;28;20166;-68
2021/01/05 14:37:19;;;;;;;9.13;4.57;;;;;;;4.92;87.28;101873.59;10108876;28;20051;-66
2021/01/05 14:42:15;;;;;;;7.97;3.28;;;;;;;4.84;87.19;101883.78;10102208;28;20054;-67
2021/01/05 14:47:15;;;;;;;12.20;3.63;;;;;;;4.72;86.13;101880.38;10101696;28;20418;-63
2021/01/05 14:52:18;;;;;;;5.80;2.80;;;;;;;4.91;87.54;101877.38;10112550;28;20155;-65
2021/01/05 14:57:15;;;;;;;6.13;2.70;;;;;;;4.91;88.95;101891.75;10102091;28;20046;-65
2021/01/05 15:02:16;;;;;;;5.20;2.38;;;;;;;4.73;87.14;101886.63;10089327;28;20058;-66
2021/01/05 15:07:13;;;;;;;8.38;2.63;;;;;;;4.67;87.34;101888.44;10100523;28;20051;-66
2021/01/05 15:12:09;;;;;;;6.28;2.90;;;;;;;4.72;86.74;101888.50;10104455;28;20054;-65
2021/01/05 15:17:06;;;;;;;6.25;2.90;;;;;;;4.74;87.67;101889.09;10100372;28;20053;-64
2021/01/05 15:22:02;;;;;;;6.10;2.75;;;;;;;4.78;88.82;101895.66;10114386;28;20042;-65
2021/01/05 15:26:59;;;;;;;6.50;2.25;;;;;;;4.81;88.52;101895.16;10109613;28;20442;-62
2021/01/05 15:31:56;;;;;;;8.57;3.10;;;;;;;4.75;88.59;101896.13;10115287;28;20053;-63
2021/01/05 15:36:52;;;;;;;4.22;2.40;;;;;;;4.50;88.14;101901.19;10109870;28;20137;-62
2021/01/05 15:41:53;;;;;;;7.55;2.90;;;;;;;4.61;88.67;101894.84;10095183;28;20728;-64
2021/01/05 15:47:03;;;;;;;4.57;2.30;;;;;;;4.46;85.91;101886.53;10110437;28;20078;-64
2021/01/05 15:52:00;;;;;;;7.88;2.55;;;;;;;4.36;87.31;101888.00;10109697;28;20525;-61
2021/01/05 15:56:57;;;;;;;7.93;2.80;;;;;;;4.35;85.27;101891.75;10113331;28;20073;-65
2021/01/05 16:01:57;;;;;;;5.07;2.30;;;;;;;4.58;89.56;101884.53;10102661;28;20419;-65
2021/01/05 16:06:54;;;;;;;5.85;2.42;;;;;;;4.73;89.59;101897.47;10107590;28;20421;-64
2021/01/05 16:11:53;;;;;;;5.30;2.40;;;;;;;4.42;89.15;101887.00;10125869;28;20054;-66
2021/01/05 16:16:55;;;;;;;6.70;1.90;;;;;;;4.49;89.20;101891.44;10113630;28;20039;-68
2021/01/05 16:22:05;;;;;;;7.60;1.60;;;;;;;4.57;89.30;101893.69;10107994;28;20078;-64
2021/01/05 16:27:04;;;;;;;6.72;2.22;;;;;;;4.56;90.17;101897.50;10109633;28;20155;-65
2021/01/05 16:32:04;;;;;;;6.60;2.63;;;;;;;4.37;88.83;101900.47;10118512;28;20593;-64
2021/01/05 16:37:01;;;;;;;4.25;1.98;;;;;;;4.68;89.99;101900.91;10109096;28;20662;-64
2021/01/05 16:41:58;;;;;;;3.70;1.83;;;;;;;4.46;89.34;101902.78;10090571;28;20042;-64
2021/01/05 16:46:58;;;;;;;7.93;1.95;;;;;;;4.40;89.71;101894.53;10114084;28;20071;-65
2021/01/05 16:51:54;;;;;;;4.28;1.92;;;;;;;4.20;88.11;101889.66;10123193;28;20525;-65
2021/01/05 16:56:51;;;;;;;5.40;2.35;;;;;;;4.22;90.13;101892.09;10102248;28;20051;-65
2021/01/05 17:01:48;;;;;;;3.55;1.60;;;;;;;4.24;90.39;101899.97;10097664;28;20130;-63
2021/01/05 17:06:47;;;;;;;4.68;2.03;;;;;;;4.41;90.78;101896.19;10113255;28;20046;-65
2021/01/05 17:11:45;;;;;;;6.22;2.22;;;;;;;4.19;89.86;101908.84;10105488;28;20065;-65
2021/01/05 17:16:46;;;;;;;5.53;2.63;;;;;;;3.95;88.28;101903.56;10100609;28;20154;-66
2021/01/05 17:21:43;;;;;;;5.28;2.83;;;;;;;4.04;89.90;101905.88;10115909;28;20057;-64
2021/01/05 17:26:39;;;;;;;4.90;2.03;;;;;;;4.13;89.36;101907.09;10105752;28;20062;-63
2021/01/05 17:31:36;;;;;;;4.28;1.70;;;;;;;4.12;89.85;101903.56;10118782;28;20487;-65
2021/01/05 17:36:32;;;;;;;5.40;2.55;;;;;;;4.10;90.02;101913.00;10119287;28;20101;-65
2021/01/05 17:41:31;;;;;;;6.20;2.95;;;;;;;4.00;90.13;101917.19;10115329;28;20046;-63
2021/01/05 17:46:28;;;;;;;6.32;3.45;;;;;;;3.73;87.21;101910.75;10112737;28;20061;-64
2021/01/05 17:51:25;;;;;;;6.65;2.90;;;;;;;4.10;88.90;101913.00;10100920;28;20043;-64
2021/01/05 17:56:26;;;;;;;5.22;2.33;;;;;;;4.15;89.89;101923.91;10105493;28;20103;-64
2021/01/05 18:01:23;;;;;;;7.22;3.00;;;;;;;4.10;90.42;101921.13;10088585;28;20051;-64
2021/01/05 18:06:22;;;;;;;6.05;3.28;;;;;;;3.90;88.69;101917.03;10104428;28;20054;-66
2021/01/05 18:11:21;;;;;;;8.40;3.53;;;;;;;3.70;87.47;101906.63;10108365;28;20089;-66
2021/01/05 18:16:27;;;;;;;7.88;2.83;;;;;;;4.09;90.75;101914.91;10095108;28;20716;-66
2021/01/05 18:21:24;;;;;;;5.60;2.42;;;;;;;4.13;91.06;101910.66;10114137;28;20053;-66
2021/01/05 18:26:20;;;;;;;7.05;2.90;;;;;;;4.13;91.22;101915.22;10101871;28;20042;-65
2021/01/05 18:31:16;;;;;;;9.73;4.20;;;;;;;3.52;86.26;101904.94;10103027;28;20057;-64
2021/01/05 18:36:13;;;;;;;6.45;2.97;;;;;;;3.99;89.83;101907.44;10103492;28;20070;-65
2021/01/05 18:41:10;;;;;;;5.45;2.40;;;;;;;4.15;90.67;101896.84;10106296;28;20678;-65
2021/01/05 18:46:06;;;;;;;6.20;3.03;;;;;;;4.08;90.74;101905.13;10097891;28;20054;-64
2021/01/05 18:51:06;;;;;;;8.80;3.90;;;;;;;3.90;89.62;101895.38;10099770;28;20065;-65
2021/01/05 18:56:05;;;;;;;9.57;3.85;;;;;;;3.79;87.62;101904.38;10115427;28;20113;-65
2021/01/05 19:01:01;;;;;;;7.18;3.00;;;;;;;3.94;90.24;101907.31;10099678;28;20514;-66
2021/01/05 19:05:59;;;;;;;5.65;3.10;;;;;;;3.86;89.49;101904.22;10107799;28;20050;-64
2021/01/05 19:10:55;;;;;;;7.68;3.25;;;;;;;3.96;90.10;101913.31;10112274;28;20057;-64
2021/01/05 19:15:52;;;;;;;5.80;2.72;;;;;;;3.98;90.48;101913.91;10101879;28;20110;-66
2021/01/05 19:20:48;;;;;;;7.57;3.08;;;;;;;3.78;88.84;101910.81;10106246;28;20075;-66
2021/01/05 19:26:00;;;;;;;5.55;2.63;;;;;;;4.09;90.14;101914.09;10104893;28;20126;-63
2021/01/05 19:31:02;;;;;;;9.85;3.28;;;;;;;3.97;90.43;101914.97;10109179;28;20133;-65
2021/01/05 19:36:13;;;;;;;7.70;3.10;;;;;;;3.90;89.90;101919.72;10109323;28;20161;-63
2021/01/05 19:41:17;;;;;;;8.93;3.78;;;;;;;3.87;90.08;101922.91;10101394;28;20054;-64
2021/01/05 19:46:14;;;;;;;6.53;3.83;;;;;;;3.75;88.40;101927.56;10104696;28;20054;-64
2021/01/05 19:51:15;;;;;;;7.85;3.30;;;;;;;3.75;88.68;101930.25;10112344;28;20038;-62
2021/01/05 19:56:16;;;;;;;7.50;3.20;;;;;;;3.85;90.48;101925.03;10110072;28;20518;-65
2021/01/05 20:01:13;;;;;;;10.38;4.10;;;;;;;3.70;88.19;101928.28;10111217;28;21116;-63
2021/01/05 20:06:19;;;;;;;11.57;3.67;;;;;;;3.74;88.96;101920.50;10110989;28;20050;-66
2021/01/05 20:11:23;;;;;;;9.90;4.47;;;;;;;3.57;86.72;101918.59;10114604;28;20057;-63
2021/01/05 20:16:21;;;;;;;8.50;4.00;;;;;;;3.71;86.22;101918.28;10105907;28;20367;-65
2021/01/05 20:21:22;;;;;;;6.75;3.47;;;;;;;3.62;83.15;101914.31;10109502;28;20051;-69
2021/01/05 20:26:24;;;;;;;11.80;5.50;;;;;;;3.28;83.35;101906.91;10102015;28;20063;-63
2021/01/05 20:31:20;;;;;;;11.82;4.75;;;;;;;3.50;83.26;101898.94;10110949;28;20079;-66
2021/01/05 20:36:26;;;;;;;8.27;4.25;;;;;;;3.53;84.04;101894.97;10106145;28;20133;-66
2021/01/05 20:41:23;;;;;;;7.25;3.60;;;;;;;3.52;83.52;101899.53;10110216;28;20062;-65
2021/01/05 20:46:23;;;;;;;10.13;3.65;;;;;;;3.61;83.04;101888.34;10116985;28;20272;-64
2021/01/05 20:51:29;;;;;;;8.15;3.70;;;;;;;3.33;81.71;101879.16;10092819;28;20133;-65
2021/01/05 20:56:26;;;;;;;8.30;3.70;;;;;;;3.52;82.25;101882.50;10110873;28;20043;-65
2021/01/05 21:01:23;;;;;;;8.75;3.70;;;;;;;3.52;82.57;101880.59;10109531;28;20108;-64
2021/01/05 21:06:20;;;;;;;9.02;3.72;;;;;;;3.45;81.71;101882.63;10116904;28;20549;-65
2021/01/05 21:11:16;;;;;;;7.53;3.75;;;;;;;3.39;81.89;101880.91;10109113;28;20073;-65
2021/01/05 21:16:15;;;;;;;10.43;4.00;;;;;;;3.40;82.18;101879.84;10105077;28;21678;-64
2021/01/05 21:21:12;;;;;;;7.97;3.42;;;;;;;3.38;82.10;101881.97;10091818;28;20046;-64
2021/01/05 21:26:08;;;;;;;8.50;3.60;;;;;;;3.45;82.79;101877.22;10099967;28;20130;-65
2021/01/05 21:31:04;;;;;;;8.45;3.75;;;;;;;3.46;82.91;101876.19;10115303;28;20065;-69
2021/01/05 21:36:01;;;;;;;7.15;3.03;;;;;;;3.58;84.43;101876.94;10115917;28;20050;-66
2021/01/05 21:41:00;;;;;;;9.20;3.92;;;;;;;3.54;84.71;101874.97;10090775;28;20129;-65
2021/01/05 21:45:58;;;;;;;8.75;3.65;;;;;;;3.47;84.13;101875.09;10109074;28;20053;-65
2021/01/05 21:50:55;;;;;;;7.57;3.17;;;;;;;3.65;82.96;101871.38;10103133;28;20055;-66
2021/01/05 21:55:53;;;;;;;7.88;3.47;;;;;;;3.70;83.46;101862.53;10105753;28;20109;-66
2021/01/05 22:00:50;;;;;;;6.95;2.92;;;;;;;3.78;84.15;101862.13;10112873;28;20049;-66
2021/01/05 22:05:52;;;;;;;8.85;3.25;;;;;;;3.71;84.92;101869.59;10095467;28;20549;-66
2021/01/05 22:10:49;;;;;;;7.07;3.00;;;;;;;3.68;82.28;101859.25;10098746;28;20657;-66
2021/01/05 22:15:45;;;;;;;7.63;3.03;;;;;;;3.62;80.75;101865.63;10102716;28;20117;-65
2021/01/05 22:20:41;;;;;;;6.93;3.00;;;;;;;3.44;81.51;101853.97;10092744;28;20063;-66
2021/01/05 22:25:38;;;;;;;8.57;3.03;;;;;;;3.54;80.46;101848.75;10097649;28;20128;-66
2021/01/05 22:30:35;;;;;;;7.97;3.22;;;;;;;3.56;80.95;101846.63;10114324;28;20050;-65
2021/01/05 22:35:35;;;;;;;8.40;3.22;;;;;;;3.58;81.62;101849.91;10114971;28;20054;-66
2021/01/05 22:40:35;;;;;;;7.30;3.78;;;;;;;3.75;82.94;101841.00;10110733;28;20047;-67
2021/01/05 22:45:32;;;;;;;7.60;2.78;;;;;;;3.58;81.81;101839.09;10114980;28;20101;-65
2021/01/05 22:50:32;;;;;;;7.40;3.30;;;;;;;3.47;80.72;101839.97;10114130;28;20081;-64
2021/01/05 22:55:31;;;;;;;6.68;3.03;;;;;;;3.54;79.77;101832.50;10110648;28;20054;-66
2021/01/05 23:00:35;;;;;;;10.25;3.10;;;;;;;3.51;79.41;101833.00;10110862;28;20082;-66
2021/01/05 23:05:31;;;;;;;8.25;2.97;;;;;;;3.12;79.54;101824.72;10116255;28;20162;-66
2021/01/05 23:10:29;;;;;;;5.93;2.83;;;;;;;3.30;80.85;101825.59;10108664;28;20050;-66
2021/01/05 23:15:33;;;;;;;9.00;3.10;;;;;;;3.30;80.41;101820.19;10116540;28;20054;-65